Time;durP1;ratioP1;P1;durP2;ratioP2;P2;SDS_P1;SDS_P2;PMS_P1;PMS_P2;Temp;Humidity;BMP_temperature;BMP_pressure;BME280_temperature;BME280_humidity;BME280_pressure;Samples;Min_cycle;Max_cycle;Signal;HPM_P1;HPM_P2
2023/08/11 00:00:36;;;;;;;6.72;3.25;;;;;;;;;;4900719;29;20043;-74
2023/08/11 00:03:03;;;;;;;9.43;3.47;;;;;;;;;;4917710;29;20028;-77
2023/08/11 00:05:28;;;;;;;9.38;3.47;;;;;;;;;;4900885;29;20024;-77
2023/08/11 00:07:54;;;;;;;8.63;3.50;;;;;;;;;;4900818;29;20027;-75
2023/08/11 00:10:20;;;;;;;7.78;2.92;;;;;;;;;;4885376;29;20487;-77
2023/08/11 00:12:46;;;;;;;8.27;3.30;;;;;;;;;;4885295;29;20123;-76
2023/08/11 00:15:12;;;;;;;7.43;3.00;;;;;;;;;;4900749;29;20058;-76
2023/08/11 00:17:38;;;;;;;11.18;3.78;;;;;;;;;;4900731;29;20028;-75
2023/08/11 00:20:05;;;;;;;7.60;3.20;;;;;;;;;;4917456;29;20523;-76
2023/08/11 00:22:31;;;;;;;9.87;3.47;;;;;;;;;;4900539;29;20032;-74
2023/08/11 00:24:56;;;;;;;8.55;3.70;;;;;;;;;;4917164;29;20118;-74
2023/08/11 00:27:22;;;;;;;9.88;3.95;;;;;;;;;;4885069;29;20476;-76
2023/08/11 00:29:47;;;;;;;10.88;3.60;;;;;;;;;;4917476;29;20016;-75
2023/08/11 00:32:13;;;;;;;9.85;4.10;;;;;;;;;;4900292;29;20484;-75
2023/08/11 00:34:39;;;;;;;8.50;3.25;;;;;;;;;;4917587;29;20029;-75
2023/08/11 00:37:04;;;;;;;13.20;3.78;;;;;;;;;;4917154;29;20103;-76
2023/08/11 00:39:30;;;;;;;7.45;3.75;;;;;;;;;;4884729;29;20032;-78
2023/08/11 00:41:56;;;;;;;9.43;3.70;;;;;;;;;;4899517;29;20029;-77
2023/08/11 00:44:21;;;;;;;7.97;3.45;;;;;;;;;;4916959;29;20056;-76
2023/08/11 00:46:47;;;;;;;11.68;3.53;;;;;;;;;;4917038;29;20044;-76
2023/08/11 00:49:14;;;;;;;10.13;3.78;;;;;;;;;;4884480;29;20043;-76
2023/08/11 00:51:40;;;;;;;12.70;3.30;;;;;;;;;;4917001;29;20054;-77
2023/08/11 00:54:07;;;;;;;7.35;3.33;;;;;;;;;;4899894;29;20043;-77
2023/08/11 00:56:33;;;;;;;10.18;3.42;;;;;;;;;;4917368;29;20032;-76
2023/08/11 00:58:59;;;;;;;11.27;4.15;;;;;;;;;;4917782;29;20092;-76
2023/08/11 01:01:25;;;;;;;9.55;3.38;;;;;;;;;;4885386;29;20072;-76
2023/08/11 01:03:50;;;;;;;12.68;3.08;;;;;;;;;;4917886;29;20066;-77
2023/08/11 01:06:25;;;;;;;11.70;3.30;;;;;;;;;;4918351;29;20032;-75
2023/08/11 01:09:09;;;;;;;8.93;3.33;;;;;;;;;;4884196;29;20532;-76
2023/08/11 01:11:43;;;;;;;8.95;2.90;;;;;;;;;;4884306;29;20537;-76
2023/08/11 01:14:17;;;;;;;11.32;3.45;;;;;;;;;;4916535;29;20543;-75
2023/08/11 01:16:48;;;;;;;9.25;3.88;;;;;;;;;;4916588;29;20040;-76
2023/08/11 01:19:19;;;;;;;6.35;3.00;;;;;;;;;;4899483;29;20051;-77
2023/08/11 01:21:47;;;;;;;8.55;3.25;;;;;;;;;;4899495;29;20028;-76
2023/08/11 01:24:12;;;;;;;10.93;3.28;;;;;;;;;;4899441;29;20043;-77
2023/08/11 01:26:38;;;;;;;11.30;3.55;;;;;;;;;;4890563;29;20040;-77
2023/08/11 01:29:03;;;;;;;12.07;3.40;;;;;;;;;;4897350;29;20396;-77
2023/08/11 01:31:29;;;;;;;7.75;3.28;;;;;;;;;;4915885;29;20024;-77
2023/08/11 01:33:54;;;;;;;8.57;3.13;;;;;;;;;;4916109;29;20103;-77
2023/08/11 01:36:20;;;;;;;9.90;3.35;;;;;;;;;;4916100;29;20340;-75
2023/08/11 01:38:46;;;;;;;7.15;3.10;;;;;;;;;;4891487;29;20035;-77
2023/08/11 01:41:13;;;;;;;6.72;2.90;;;;;;;;;;4897962;29;20036;-77
2023/08/11 01:43:38;;;;;;;9.15;3.08;;;;;;;;;;4883611;29;20031;-77
2023/08/11 01:46:04;;;;;;;9.77;3.17;;;;;;;;;;4898953;29;20404;-77
2023/08/11 01:48:30;;;;;;;13.43;3.33;;;;;;;;;;4916082;29;20111;-78
2023/08/11 01:50:55;;;;;;;7.90;3.25;;;;;;;;;;4898850;29;20392;-77
2023/08/11 01:53:21;;;;;;;8.57;3.05;;;;;;;;;;4899371;29;20107;-75
2023/08/11 01:55:47;;;;;;;12.05;3.38;;;;;;;;;;4916947;29;20424;-75
2023/08/11 01:58:13;;;;;;;9.35;3.25;;;;;;;;;;4903155;29;20024;-74
2023/08/11 02:00:38;;;;;;;9.45;3.45;;;;;;;;;;4884217;29;20409;-77
2023/08/11 02:03:04;;;;;;;7.72;2.97;;;;;;;;;;4929502;29;20036;-73
2023/08/11 02:05:30;;;;;;;8.40;3.30;;;;;;;;;;4882944;29;20532;-75
2023/08/11 02:07:56;;;;;;;6.72;3.13;;;;;;;;;;4935963;29;20088;-77
2023/08/11 02:10:21;;;;;;;8.18;3.10;;;;;;;;;;4918814;29;20047;-76
2023/08/11 02:12:48;;;;;;;15.45;3.30;;;;;;;;;;4903325;29;20040;-76
2023/08/11 02:15:14;;;;;;;6.28;2.92;;;;;;;;;;4883875;29;20111;-75
2023/08/11 02:17:39;;;;;;;12.85;3.20;;;;;;;;;;4899179;29;20027;-77
2023/08/11 02:22:46;;;;;;;9.70;3.65;;;;;;;;;;4899662;29;20044;-76
2023/08/11 02:25:11;;;;;;;9.55;3.50;;;;;;;;;;4899461;29;20380;-77
2023/08/11 02:27:37;;;;;;;9.23;3.78;;;;;;;;;;4883018;29;20458;-76
2023/08/11 02:30:06;;;;;;;11.57;3.83;;;;;;;;;;4880627;29;20028;-76
2023/08/11 02:32:32;;;;;;;10.70;3.28;;;;;;;;;;4890579;29;20036;-76
2023/08/11 02:34:58;;;;;;;8.25;3.45;;;;;;;;;;4913138;29;20404;-76
2023/08/11 02:37:24;;;;;;;10.02;3.25;;;;;;;;;;4915778;29;20044;-76
2023/08/11 02:39:49;;;;;;;8.05;3.25;;;;;;;;;;4898491;29;20483;-76
2023/08/11 02:42:15;;;;;;;12.65;2.90;;;;;;;;;;4898854;29;20042;-77
2023/08/11 02:44:42;;;;;;;7.50;3.00;;;;;;;;;;4891111;29;20036;-76
2023/08/11 02:47:08;;;;;;;8.60;3.30;;;;;;;;;;4883872;29;20091;-74
2023/08/11 02:49:33;;;;;;;7.60;3.00;;;;;;;;;;4899171;29;20028;-76
2023/08/11 02:51:59;;;;;;;8.65;3.10;;;;;;;;;;4916118;29;20024;-77
2023/08/11 02:54:25;;;;;;;11.73;3.15;;;;;;;;;;4898837;29;20127;-76
2023/08/11 02:56:50;;;;;;;10.20;2.90;;;;;;;;;;4898732;29;20135;-76
2023/08/11 02:59:16;;;;;;;9.27;3.35;;;;;;;;;;4910814;23;20059;-76
2023/08/11 03:01:41;;;;;;;6.35;3.13;;;;;;;;;;4882534;29;20567;-76
2023/08/11 03:04:07;;;;;;;10.43;3.10;;;;;;;;;;4914801;29;20031;-77
2023/08/11 03:06:33;;;;;;;7.97;3.28;;;;;;;;;;4901196;29;20051;-77
2023/08/11 03:08:59;;;;;;;6.55;3.13;;;;;;;;;;4902000;29;20036;-78
2023/08/11 03:11:25;;;;;;;11.60;3.20;;;;;;;;;;4901950;29;20087;-77
2023/08/11 03:13:51;;;;;;;9.55;2.90;;;;;;;;;;4901787;29;20024;-77
2023/08/11 03:16:17;;;;;;;10.13;3.17;;;;;;;;;;4901912;29;20115;-77
2023/08/11 03:18:42;;;;;;;8.15;2.88;;;;;;;;;;4901810;29;20032;-76
2023/08/11 03:21:08;;;;;;;11.18;3.67;;;;;;;;;;4901559;29;20380;-76
2023/08/11 03:23:35;;;;;;;9.38;3.15;;;;;;;;;;4901759;29;20043;-77
2023/08/11 03:26:00;;;;;;;9.73;2.53;;;;;;;;;;4901498;29;20095;-77
2023/08/11 03:28:29;;;;;;;10.75;3.05;;;;;;;;;;4886698;29;20063;-77
2023/08/11 03:30:55;;;;;;;9.68;2.88;;;;;;;;;;4900924;29;20056;-76
2023/08/11 03:33:21;;;;;;;10.93;4.38;;;;;;;;;;4870304;29;20032;-77
2023/08/11 03:35:52;;;;;;;26.25;5.53;;;;;;;;;;4883305;29;20036;-76
2023/08/11 03:38:18;;;;;;;5.70;2.60;;;;;;;;;;4910934;29;20518;-76
2023/08/11 03:40:43;;;;;;;11.60;2.72;;;;;;;;;;4918851;29;20064;-77
2023/08/11 03:43:09;;;;;;;8.60;3.33;;;;;;;;;;4886228;29;20035;-76
2023/08/11 03:45:35;;;;;;;8.68;3.40;;;;;;;;;;4918228;29;20032;-78
2023/08/11 03:48:03;;;;;;;9.55;3.20;;;;;;;;;;4885790;29;20040;-78
2023/08/11 03:50:28;;;;;;;8.60;3.10;;;;;;;;;;4885691;29;20032;-77
2023/08/11 03:52:54;;;;;;;12.80;3.58;;;;;;;;;;4904210;29;20024;-76
2023/08/11 03:55:20;;;;;;;10.55;3.83;;;;;;;;;;4901214;29;20083;-76
2023/08/11 03:57:46;;;;;;;11.00;3.40;;;;;;;;;;4903695;29;20028;-78
2023/08/11 04:00:15;;;;;;;7.57;3.83;;;;;;;;;;4888017;29;20043;-77
2023/08/11 04:02:43;;;;;;;10.30;3.40;;;;;;;;;;4901827;29;20040;-78
2023/08/11 04:05:10;;;;;;;8.30;3.17;;;;;;;;;;4901781;29;20032;-77
2023/08/11 04:07:36;;;;;;;17.30;5.43;;;;;;;;;;4901733;29;20399;-76
2023/08/11 04:10:04;;;;;;;9.48;3.50;;;;;;;;;;4901678;29;20036;-79
2023/08/11 04:12:30;;;;;;;11.77;3.67;;;;;;;;;;4918041;29;20104;-78
2023/08/11 04:14:56;;;;;;;11.95;3.33;;;;;;;;;;4900950;29;20055;-77
2023/08/11 04:17:21;;;;;;;10.23;3.40;;;;;;;;;;4916442;29;20107;-77
2023/08/11 04:19:48;;;;;;;11.20;4.20;;;;;;;;;;4900666;29;20020;-77
2023/08/11 04:22:13;;;;;;;10.63;3.50;;;;;;;;;;4917316;29;20036;-75
2023/08/11 04:24:39;;;;;;;10.18;3.75;;;;;;;;;;4900504;29;20043;-76
2023/08/11 04:27:05;;;;;;;12.68;3.78;;;;;;;;;;4869325;29;20095;-78
2023/08/11 04:29:32;;;;;;;7.55;3.20;;;;;;;;;;4885484;29;20087;-78
2023/08/11 04:32:02;;;;;;;12.50;3.47;;;;;;;;;;4901936;29;20109;-77
2023/08/11 04:34:28;;;;;;;7.38;3.55;;;;;;;;;;4908943;29;20032;-77
2023/08/11 04:36:54;;;;;;;9.15;3.25;;;;;;;;;;4938713;29;20028;-77
2023/08/11 04:39:20;;;;;;;12.55;3.55;;;;;;;;;;4921466;29;20035;-77
2023/08/11 04:41:45;;;;;;;9.93;3.72;;;;;;;;;;4923350;29;20015;-77
2023/08/11 04:44:11;;;;;;;10.00;2.95;;;;;;;;;;4919673;29;20024;-77
2023/08/11 04:46:36;;;;;;;8.75;3.17;;;;;;;;;;4923507;29;20028;-78
2023/08/11 04:49:02;;;;;;;9.70;3.30;;;;;;;;;;4909753;29;20246;-76
2023/08/11 04:51:27;;;;;;;12.68;3.60;;;;;;;;;;4902788;29;20058;-77
2023/08/11 04:53:59;;;;;;;13.15;2.90;;;;;;;;;;4900237;29;20477;-78
2023/08/11 04:56:25;;;;;;;12.07;3.78;;;;;;;;;;4900749;29;20032;-78
2023/08/11 04:58:51;;;;;;;15.30;3.78;;;;;;;;;;4918283;29;20039;-78
2023/08/11 05:01:16;;;;;;;12.13;3.40;;;;;;;;;;4901137;29;20036;-79
2023/08/11 05:03:42;;;;;;;10.85;4.03;;;;;;;;;;4918254;29;20024;-78
2023/08/11 05:06:10;;;;;;;11.43;3.88;;;;;;;;;;4900390;29;20083;-76
2023/08/11 05:08:36;;;;;;;12.68;3.72;;;;;;;;;;4917529;29;20475;-77
2023/08/11 05:11:03;;;;;;;17.73;4.43;;;;;;;;;;4916842;29;20056;-76
2023/08/11 05:13:28;;;;;;;14.48;4.00;;;;;;;;;;4899886;29;20028;-79
2023/08/11 05:15:54;;;;;;;19.92;5.25;;;;;;;;;;4899951;29;20567;-78
2023/08/11 05:18:19;;;;;;;11.30;4.35;;;;;;;;;;4916335;29;20028;-78
2023/08/11 05:20:46;;;;;;;19.90;5.43;;;;;;;;;;4916391;29;20087;-77
2023/08/11 05:23:12;;;;;;;22.45;5.20;;;;;;;;;;4899112;29;20036;-78
2023/08/11 05:25:38;;;;;;;12.43;5.18;;;;;;;;;;4916235;29;20043;-77
2023/08/11 05:28:03;;;;;;;16.35;5.68;;;;;;;;;;4915976;29;20035;-76
2023/08/11 05:30:29;;;;;;;15.98;5.05;;;;;;;;;;4916158;29;20021;-78
2023/08/11 05:32:55;;;;;;;15.77;6.03;;;;;;;;;;4915650;29;20488;-76
2023/08/11 05:35:20;;;;;;;15.80;5.28;;;;;;;;;;4883599;29;20036;-77
2023/08/11 05:37:47;;;;;;;17.75;5.32;;;;;;;;;;4899158;29;20039;-76
2023/08/11 05:40:12;;;;;;;15.00;5.15;;;;;;;;;;4899648;29;20043;-77
2023/08/11 05:42:38;;;;;;;16.42;5.68;;;;;;;;;;4899161;29;20036;-77
2023/08/11 05:45:04;;;;;;;13.07;5.20;;;;;;;;;;4915940;29;20039;-78
2023/08/11 05:47:29;;;;;;;16.73;5.10;;;;;;;;;;4916278;29;20039;-77
2023/08/11 05:49:55;;;;;;;16.63;5.55;;;;;;;;;;4899110;29;20024;-77
2023/08/11 05:52:20;;;;;;;13.02;4.85;;;;;;;;;;4915864;29;20083;-77
2023/08/11 05:54:46;;;;;;;21.08;4.80;;;;;;;;;;4899180;29;20024;-77
2023/08/11 05:57:12;;;;;;;10.52;4.18;;;;;;;;;;4915949;29;20029;-77
2023/08/11 05:59:37;;;;;;;8.38;4.28;;;;;;;;;;4899060;29;20032;-77
2023/08/11 06:02:03;;;;;;;12.18;3.97;;;;;;;;;;4916304;29;20072;-76
2023/08/11 06:04:29;;;;;;;15.13;4.40;;;;;;;;;;4898742;29;20487;-77
2023/08/11 06:06:55;;;;;;;15.05;4.40;;;;;;;;;;4916170;29;20032;-77
2023/08/11 06:09:21;;;;;;;18.55;4.55;;;;;;;;;;4916514;29;20152;-76
2023/08/11 06:11:46;;;;;;;10.23;3.97;;;;;;;;;;4916254;29;20031;-77
2023/08/11 06:14:12;;;;;;;11.85;4.28;;;;;;;;;;4883613;29;20403;-77
2023/08/11 06:16:38;;;;;;;14.43;4.50;;;;;;;;;;4899863;29;20032;-78
2023/08/11 06:19:03;;;;;;;13.00;3.78;;;;;;;;;;4883711;29;20051;-77
2023/08/11 06:21:29;;;;;;;12.32;4.30;;;;;;;;;;4916519;29;20024;-77
2023/08/11 06:23:55;;;;;;;29.38;6.10;;;;;;;;;;4915441;29;20028;-77
2023/08/11 06:26:20;;;;;;;18.92;4.45;;;;;;;;;;4898389;29;20124;-77
2023/08/11 06:28:46;;;;;;;20.20;4.75;;;;;;;;;;4915404;29;20456;-77
2023/08/11 06:31:11;;;;;;;14.77;4.40;;;;;;;;;;4914232;29;20025;-79
2023/08/11 06:33:37;;;;;;;14.65;4.38;;;;;;;;;;4898198;29;20063;-77
2023/08/11 06:36:03;;;;;;;14.80;5.50;;;;;;;;;;4898443;29;20047;-77
2023/08/11 06:38:30;;;;;;;11.45;4.57;;;;;;;;;;4898637;29;20078;-78
2023/08/11 06:40:56;;;;;;;10.85;3.85;;;;;;;;;;4917239;29;20036;-77
2023/08/11 06:43:21;;;;;;;13.75;4.03;;;;;;;;;;4886462;29;20052;-77
2023/08/11 06:45:47;;;;;;;13.00;4.65;;;;;;;;;;4919219;29;20118;-77
2023/08/11 06:48:12;;;;;;;13.82;3.90;;;;;;;;;;4919017;29;20056;-77
2023/08/11 06:50:38;;;;;;;11.05;4.07;;;;;;;;;;4919249;29;20487;-78
2023/08/11 06:53:03;;;;;;;6.10;3.33;;;;;;;;;;4918714;29;20126;-77
2023/08/11 06:55:29;;;;;;;11.13;3.53;;;;;;;;;;4902029;29;20510;-78
2023/08/11 06:57:54;;;;;;;12.18;4.03;;;;;;;;;;4886364;29;20028;-77
2023/08/11 07:00:20;;;;;;;17.40;3.80;;;;;;;;;;4918453;29;20036;-78
2023/08/11 07:02:46;;;;;;;10.98;4.20;;;;;;;;;;4918641;29;20036;-79
2023/08/11 07:05:12;;;;;;;13.35;3.35;;;;;;;;;;4901985;29;20040;-79
2023/08/11 07:07:37;;;;;;;17.02;3.55;;;;;;;;;;4902320;29;20024;-78
2023/08/11 07:10:03;;;;;;;13.32;3.28;;;;;;;;;;4903215;29;20028;-77
2023/08/11 07:12:28;;;;;;;9.55;3.42;;;;;;;;;;4905178;29;20056;-78
2023/08/11 07:14:54;;;;;;;6.45;2.72;;;;;;;;;;4926538;29;20028;-77
2023/08/11 07:17:23;;;;;;;14.55;3.63;;;;;;;;;;4892741;29;20118;-77
2023/08/11 07:19:48;;;;;;;15.88;3.28;;;;;;;;;;4925813;29;20024;-77
2023/08/11 07:22:14;;;;;;;13.48;3.65;;;;;;;;;;4926861;29;20032;-76
2023/08/11 07:24:39;;;;;;;18.30;4.22;;;;;;;;;;4905174;29;20028;-78
2023/08/11 07:27:05;;;;;;;13.25;3.67;;;;;;;;;;4902356;29;20032;-77
2023/08/11 07:29:30;;;;;;;11.77;3.10;;;;;;;;;;4918792;29;20075;-77
2023/08/11 07:31:56;;;;;;;13.27;3.38;;;;;;;;;;4900585;29;20476;-78
2023/08/11 07:34:22;;;;;;;10.98;4.22;;;;;;;;;;4918475;29;20470;-77
2023/08/11 07:36:47;;;;;;;6.57;3.10;;;;;;;;;;4902684;29;20035;-77
2023/08/11 07:39:13;;;;;;;11.60;2.95;;;;;;;;;;4902458;29;20066;-78
2023/08/11 07:41:38;;;;;;;7.28;2.50;;;;;;;;;;4918659;29;20533;-78
2023/08/11 07:44:04;;;;;;;7.85;2.45;;;;;;;;;;4901294;29;20049;-79
2023/08/11 07:46:30;;;;;;;9.70;3.17;;;;;;;;;;4918368;29;20066;-78
2023/08/11 07:48:58;;;;;;;7.65;2.53;;;;;;;;;;4901144;29;20328;-78
2023/08/11 07:51:23;;;;;;;7.60;2.17;;;;;;;;;;4917663;29;20483;-77
2023/08/11 07:53:49;;;;;;;15.50;2.67;;;;;;;;;;4900928;29;20024;-77
2023/08/11 07:56:15;;;;;;;6.05;2.50;;;;;;;;;;4901237;29;20029;-78
2023/08/11 07:58:40;;;;;;;8.65;3.08;;;;;;;;;;4918316;29;20119;-78
2023/08/11 08:01:08;;;;;;;9.48;2.40;;;;;;;;;;4918284;29;20516;-79
2023/08/11 08:03:34;;;;;;;6.95;2.40;;;;;;;;;;4918842;29;20055;-78
2023/08/11 08:06:00;;;;;;;6.68;2.08;;;;;;;;;;4932740;29;20032;-79
2023/08/11 08:08:29;;;;;;;8.55;2.63;;;;;;;;;;4932507;29;20033;-79
2023/08/11 08:10:55;;;;;;;6.57;2.25;;;;;;;;;;4934990;29;20047;-79
2023/08/11 08:13:20;;;;;;;12.75;2.22;;;;;;;;;;4913336;29;20032;-78
2023/08/11 08:15:46;;;;;;;9.18;2.15;;;;;;;;;;4923934;29;20399;-78
2023/08/11 08:18:11;;;;;;;4.47;2.17;;;;;;;;;;4904288;29;20032;-78
2023/08/11 08:20:37;;;;;;;10.77;2.15;;;;;;;;;;4902328;29;20040;-78
2023/08/11 08:23:03;;;;;;;7.13;1.75;;;;;;;;;;4919511;29;20047;-77
2023/08/11 08:25:28;;;;;;;6.03;1.95;;;;;;;;;;4886691;29;20111;-78
2023/08/11 08:27:54;;;;;;;6.60;2.30;;;;;;;;;;4918036;29;20091;-77
2023/08/11 08:30:19;;;;;;;4.85;2.00;;;;;;;;;;4917867;29;20020;-78
2023/08/11 08:32:45;;;;;;;10.77;2.03;;;;;;;;;;4916705;29;20024;-77
2023/08/11 08:35:10;;;;;;;7.35;2.03;;;;;;;;;;4917334;29;20024;-78
2023/08/11 08:37:36;;;;;;;6.15;1.83;;;;;;;;;;4917291;29;20032;-78
2023/08/11 08:40:02;;;;;;;5.93;2.60;;;;;;;;;;4917336;29;20047;-77
2023/08/11 08:42:29;;;;;;;9.18;1.83;;;;;;;;;;4900405;29;20040;-77
2023/08/11 08:44:56;;;;;;;4.45;1.83;;;;;;;;;;4917101;29;20056;-77
2023/08/11 08:47:23;;;;;;;7.60;1.85;;;;;;;;;;4901647;29;20028;-78
2023/08/11 08:49:48;;;;;;;6.80;1.40;;;;;;;;;;4884453;29;20052;-78
2023/08/11 08:52:15;;;;;;;5.10;1.60;;;;;;;;;;4917083;29;20052;-78
2023/08/11 08:54:41;;;;;;;6.95;1.52;;;;;;;;;;4917073;29;20488;-80
2023/08/11 08:57:09;;;;;;;5.50;1.55;;;;;;;;;;4916853;29;20036;-79
2023/08/11 08:59:38;;;;;;;2.67;1.25;;;;;;;;;;4896331;23;20031;-78
2023/08/11 09:02:06;;;;;;;5.78;1.75;;;;;;;;;;4917138;29;20111;-77
2023/08/11 09:04:32;;;;;;;4.22;1.30;;;;;;;;;;4916199;29;20028;-78
2023/08/11 09:06:58;;;;;;;4.72;1.17;;;;;;;;;;4884513;29;20131;-77
2023/08/11 09:09:24;;;;;;;4.10;1.58;;;;;;;;;;4899774;29;20402;-77
2023/08/11 09:11:50;;;;;;;5.15;1.33;;;;;;;;;;4899937;29;20111;-78
2023/08/11 09:14:19;;;;;;;6.70;1.50;;;;;;;;;;4917213;29;20059;-77
2023/08/11 09:16:45;;;;;;;4.18;1.55;;;;;;;;;;4901067;29;20495;-74
2023/08/11 09:19:11;;;;;;;2.90;1.10;;;;;;;;;;4916795;29;20060;-77
2023/08/11 09:21:39;;;;;;;3.67;1.02;;;;;;;;;;4917095;29;20032;-78
2023/08/11 09:24:09;;;;;;;3.28;1.13;;;;;;;;;;4872010;29;20043;-78
2023/08/11 09:26:34;;;;;;;2.55;0.93;;;;;;;;;;4894189;29;20047;-78
2023/08/11 09:29:00;;;;;;;8.55;1.40;;;;;;;;;;4900028;29;20024;-77
2023/08/11 09:31:25;;;;;;;10.27;2.30;;;;;;;;;;4916594;29;20401;-76
2023/08/11 09:33:52;;;;;;;4.57;1.08;;;;;;;;;;4899863;29;20522;-79
2023/08/11 09:36:18;;;;;;;3.60;1.67;;;;;;;;;;4900184;29;20076;-77
2023/08/11 09:38:47;;;;;;;3.95;1.75;;;;;;;;;;4917428;29;20036;-77
2023/08/11 09:41:13;;;;;;;2.70;1.15;;;;;;;;;;4886271;29;20040;-77
2023/08/11 09:43:39;;;;;;;7.15;1.30;;;;;;;;;;4919980;29;20107;-76
2023/08/11 09:46:04;;;;;;;3.35;1.00;;;;;;;;;;4931167;29;20040;-78
2023/08/11 09:48:31;;;;;;;5.32;1.33;;;;;;;;;;4935328;29;20048;-78
2023/08/11 09:50:57;;;;;;;5.95;1.40;;;;;;;;;;4933340;29;20060;-76
2023/08/11 09:53:23;;;;;;;6.32;1.90;;;;;;;;;;4911491;29;20043;-78
2023/08/11 09:55:49;;;;;;;3.92;1.33;;;;;;;;;;4937108;29;20040;-78
2023/08/11 09:58:15;;;;;;;3.78;1.10;;;;;;;;;;4923066;29;20028;-77
2023/08/11 10:00:42;;;;;;;3.33;1.10;;;;;;;;;;4921609;29;20442;-76
2023/08/11 10:03:16;;;;;;;6.53;1.63;;;;;;;;;;4899134;29;20066;-77
2023/08/11 10:05:45;;;;;;;4.65;1.58;;;;;;;;;;4899244;29;20051;-76
2023/08/11 10:08:14;;;;;;;7.10;1.42;;;;;;;;;;4899408;29;20028;-75
2023/08/11 10:10:40;;;;;;;5.10;1.27;;;;;;;;;;4916586;29;20043;-76
2023/08/11 10:13:07;;;;;;;4.25;0.88;;;;;;;;;;4916471;29;20032;-77
2023/08/11 10:15:33;;;;;;;5.28;1.05;;;;;;;;;;4916259;29;20032;-78
2023/08/11 10:17:59;;;;;;;13.70;1.30;;;;;;;;;;4899234;29;20024;-75
2023/08/11 10:20:25;;;;;;;3.25;1.05;;;;;;;;;;4916558;29;20035;-75
2023/08/11 10:22:51;;;;;;;3.83;1.20;;;;;;;;;;4868017;29;20044;-77
2023/08/11 10:25:17;;;;;;;3.83;1.25;;;;;;;;;;4883433;29;20047;-77
2023/08/11 10:27:43;;;;;;;4.30;0.90;;;;;;;;;;4916097;29;20482;-77
2023/08/11 10:30:10;;;;;;;3.45;1.50;;;;;;;;;;4915842;29;20039;-75
2023/08/11 10:32:36;;;;;;;2.90;0.98;;;;;;;;;;4883276;29;20028;-77
2023/08/11 10:35:06;;;;;;;5.13;1.45;;;;;;;;;;4915663;29;20042;-77
2023/08/11 10:37:32;;;;;;;3.83;1.10;;;;;;;;;;4883375;29;20035;-78
2023/08/11 10:40:16;;;;;;;4.38;1.52;;;;;;;;;;4899191;29;20028;-77
2023/08/11 10:42:42;;;;;;;4.40;1.20;;;;;;;;;;4898642;29;20020;-78
2023/08/11 10:45:09;;;;;;;4.47;1.17;;;;;;;;;;4898434;29;20080;-78
2023/08/11 10:47:35;;;;;;;2.33;1.13;;;;;;;;;;4898828;29;20111;-77
2023/08/11 10:50:01;;;;;;;4.15;1.20;;;;;;;;;;4915104;29;20038;-78
2023/08/11 10:52:29;;;;;;;3.38;1.33;;;;;;;;;;4883067;29;20036;-76
2023/08/11 10:54:59;;;;;;;5.20;1.30;;;;;;;;;;4882914;29;20032;-77
2023/08/11 10:57:24;;;;;;;5.50;1.10;;;;;;;;;;4883693;29;20032;-76
2023/08/11 10:59:50;;;;;;;7.28;1.55;;;;;;;;;;4898461;29;20400;-77
2023/08/11 11:02:18;;;;;;;8.48;2.17;;;;;;;;;;4915521;29;20059;-77
2023/08/11 11:04:44;;;;;;;4.63;1.02;;;;;;;;;;4915607;29;20032;-75
2023/08/11 11:07:12;;;;;;;5.32;1.23;;;;;;;;;;4898488;29;20493;-78
2023/08/11 11:09:37;;;;;;;3.83;1.23;;;;;;;;;;4883103;29;20226;-76
2023/08/11 11:12:03;;;;;;;3.13;1.13;;;;;;;;;;4899163;29;20064;-77
2023/08/11 11:14:29;;;;;;;5.28;1.00;;;;;;;;;;4915310;29;20058;-77
2023/08/11 11:16:58;;;;;;;3.45;0.90;;;;;;;;;;4915202;29;20052;-76
2023/08/11 11:19:24;;;;;;;4.25;0.98;;;;;;;;;;4867847;29;20032;-76
2023/08/11 11:21:49;;;;;;;2.65;1.00;;;;;;;;;;4915333;29;20028;-77
2023/08/11 11:24:15;;;;;;;5.20;1.33;;;;;;;;;;4915272;29;20035;-76
2023/08/11 11:26:42;;;;;;;2.05;0.98;;;;;;;;;;4883587;29;20047;-78
2023/08/11 11:29:07;;;;;;;4.82;1.50;;;;;;;;;;4901512;29;20376;-75
2023/08/11 11:31:34;;;;;;;9.52;1.30;;;;;;;;;;4886057;29;20032;-76
2023/08/11 11:34:32;;;;;;;3.72;1.15;;;;;;;;;;4918646;29;20062;-78
2023/08/11 11:36:59;;;;;;;5.30;1.30;;;;;;;;;;4896817;29;20047;-77
2023/08/11 11:39:25;;;;;;;7.32;1.30;;;;;;;;;;4899522;29;20097;-76
2023/08/11 11:41:50;;;;;;;4.03;1.08;;;;;;;;;;4907292;29;20511;-76
2023/08/11 11:44:16;;;;;;;6.00;1.20;;;;;;;;;;4914100;29;20036;-77
2023/08/11 11:46:42;;;;;;;4.03;1.13;;;;;;;;;;4897983;29;20033;-75
2023/08/11 11:49:08;;;;;;;5.45;1.10;;;;;;;;;;4904887;29;20028;-75
2023/08/11 11:51:34;;;;;;;2.65;1.27;;;;;;;;;;4901373;29;20020;-77
2023/08/11 11:53:59;;;;;;;4.40;1.42;;;;;;;;;;4903575;29;20548;-77
2023/08/11 11:56:32;;;;;;;3.80;1.10;;;;;;;;;;4918585;29;20118;-76
2023/08/11 11:58:58;;;;;;;4.47;1.17;;;;;;;;;;4904229;29;20036;-76
2023/08/11 12:01:27;;;;;;;4.45;1.23;;;;;;;;;;4882930;29;20408;-75
2023/08/11 12:03:55;;;;;;;5.93;1.17;;;;;;;;;;4900102;29;20503;-78
2023/08/11 12:06:20;;;;;;;5.75;1.63;;;;;;;;;;4900329;29;20488;-78
2023/08/11 12:08:48;;;;;;;3.40;1.40;;;;;;;;;;4885456;29;20111;-78
2023/08/11 12:11:17;;;;;;;6.38;1.20;;;;;;;;;;4886338;29;20032;-76
2023/08/11 12:13:43;;;;;;;2.10;0.98;;;;;;;;;;4906452;29;20112;-76
2023/08/11 12:16:10;;;;;;;7.07;1.48;;;;;;;;;;4895067;29;20032;-77
2023/08/11 12:18:37;;;;;;;3.58;1.33;;;;;;;;;;4919770;29;20028;-76
2023/08/11 12:21:03;;;;;;;7.20;1.30;;;;;;;;;;4922086;29;20100;-76
2023/08/11 12:23:29;;;;;;;3.88;1.00;;;;;;;;;;4932232;29;20032;-76
2023/08/11 12:25:55;;;;;;;5.72;1.10;;;;;;;;;;4916383;29;20032;-76
2023/08/11 12:28:21;;;;;;;7.28;1.02;;;;;;;;;;4935920;29;20078;-76
2023/08/11 12:30:47;;;;;;;2.83;0.95;;;;;;;;;;4934143;29;20048;-77
2023/08/11 12:33:13;;;;;;;4.32;1.23;;;;;;;;;;4910613;29;20032;-76
2023/08/11 12:35:39;;;;;;;3.65;1.10;;;;;;;;;;4907795;29;20063;-76
2023/08/11 12:38:05;;;;;;;5.47;1.30;;;;;;;;;;4897948;29;20060;-77
2023/08/11 12:40:31;;;;;;;2.28;0.95;;;;;;;;;;4882762;29;20032;-77
2023/08/11 12:42:56;;;;;;;3.78;1.30;;;;;;;;;;4897830;29;20087;-77
2023/08/11 12:45:22;;;;;;;3.22;1.13;;;;;;;;;;4900528;29;20548;-77
2023/08/11 12:47:47;;;;;;;2.90;0.90;;;;;;;;;;4900789;29;20107;-77
2023/08/11 12:50:13;;;;;;;5.63;1.30;;;;;;;;;;4899590;29;20055;-77
2023/08/11 12:52:39;;;;;;;3.13;1.42;;;;;;;;;;4884836;29;20024;-77
2023/08/11 12:55:05;;;;;;;8.05;1.00;;;;;;;;;;4917749;29;20079;-78
2023/08/11 12:57:31;;;;;;;4.18;1.58;;;;;;;;;;4917631;29;20094;-77
2023/08/11 12:59:57;;;;;;;5.03;1.13;;;;;;;;;;4900692;29;20123;-76
2023/08/11 13:02:22;;;;;;;2.10;0.95;;;;;;;;;;4901854;29;20029;-77
2023/08/11 13:04:48;;;;;;;7.28;1.40;;;;;;;;;;4902177;29;20437;-77
2023/08/11 13:07:14;;;;;;;4.88;1.30;;;;;;;;;;4915180;29;20028;-77
2023/08/11 13:09:39;;;;;;;3.05;1.23;;;;;;;;;;4900863;29;20083;-78
2023/08/11 13:12:11;;;;;;;6.47;1.40;;;;;;;;;;4918142;29;20484;-78
2023/08/11 13:14:40;;;;;;;2.47;0.98;;;;;;;;;;4918597;29;20052;-77
2023/08/11 13:17:05;;;;;;;5.30;1.15;;;;;;;;;;4884879;29;20488;-75
2023/08/11 13:19:31;;;;;;;7.57;1.13;;;;;;;;;;4917219;29;20088;-76
2023/08/11 13:21:59;;;;;;;4.65;1.30;;;;;;;;;;4916999;29;20070;-78
2023/08/11 13:24:27;;;;;;;6.32;1.38;;;;;;;;;;4916879;29;20036;-76
2023/08/11 13:26:53;;;;;;;8.05;1.65;;;;;;;;;;4912077;29;20032;-76
2023/08/11 13:29:18;;;;;;;3.30;1.38;;;;;;;;;;4868903;29;20511;-77
2023/08/11 13:31:43;;;;;;;2.65;1.23;;;;;;;;;;4894281;29;20029;-77
2023/08/11 13:34:09;;;;;;;4.97;1.33;;;;;;;;;;4886537;29;20043;-77
2023/08/11 13:36:35;;;;;;;3.85;1.38;;;;;;;;;;4893777;29;20035;-77
2023/08/11 13:39:00;;;;;;;6.80;1.38;;;;;;;;;;4900373;29;20036;-77
2023/08/11 13:41:26;;;;;;;6.35;1.42;;;;;;;;;;4916663;29;20153;-77
2023/08/11 13:43:51;;;;;;;8.15;1.30;;;;;;;;;;4916349;29;20056;-77
2023/08/11 13:46:20;;;;;;;9.57;1.25;;;;;;;;;;4900427;29;20095;-76
2023/08/11 13:48:45;;;;;;;4.80;1.45;;;;;;;;;;4916926;29;20057;-77
2023/08/11 13:51:11;;;;;;;4.07;1.30;;;;;;;;;;4916258;29;20066;-77
2023/08/11 13:53:37;;;;;;;4.63;1.50;;;;;;;;;;4898875;29;20107;-78
2023/08/11 13:56:02;;;;;;;6.07;1.52;;;;;;;;;;4916234;29;20084;-75
2023/08/11 13:58:28;;;;;;;2.33;1.05;;;;;;;;;;4899211;29;20036;-76
2023/08/11 14:00:53;;;;;;;6.43;1.70;;;;;;;;;;4899236;29;20564;-75
2023/08/11 14:03:19;;;;;;;10.02;1.33;;;;;;;;;;4915656;29;20060;-78
2023/08/11 14:05:45;;;;;;;4.05;1.10;;;;;;;;;;4883378;29;20111;-77
2023/08/11 14:08:12;;;;;;;5.70;1.67;;;;;;;;;;4893117;29;20028;-77
2023/08/11 14:10:37;;;;;;;4.88;1.70;;;;;;;;;;4897280;29;20031;-75
2023/08/11 14:13:04;;;;;;;4.50;1.38;;;;;;;;;;4880697;29;20037;-77
2023/08/11 14:15:30;;;;;;;6.07;1.17;;;;;;;;;;4880157;29;20064;-74
2023/08/11 14:17:55;;;;;;;6.35;1.50;;;;;;;;;;4897792;29;20492;-77
2023/08/11 14:20:21;;;;;;;7.40;1.50;;;;;;;;;;4896752;29;20116;-77
2023/08/11 14:22:46;;;;;;;4.20;1.42;;;;;;;;;;4896620;29;20036;-76
2023/08/11 14:25:12;;;;;;;5.03;1.20;;;;;;;;;;4881529;29;20036;-78
2023/08/11 14:27:37;;;;;;;6.43;1.20;;;;;;;;;;4897013;29;20459;-77
2023/08/11 14:30:03;;;;;;;4.50;1.40;;;;;;;;;;4896844;29;20428;-75
2023/08/11 14:32:32;;;;;;;3.58;1.40;;;;;;;;;;4865151;29;20040;-77
2023/08/11 14:34:57;;;;;;;2.75;1.27;;;;;;;;;;4896923;29;20027;-78